sensor_id;sensor_type;location;lat;lon;timestamp;P1;P2;P0
47982;PMS5003;33751;50.816;-1.214;2023-04-03T00:00:01;4;4;
47982;PMS5003;33751;50.816;-1.214;2023-04-03T00:02:29;6;6;
47982;PMS5003;33751;50.816;-1.214;2023-04-03T00:04:56;5;4;
47982;PMS5003;33751;50.816;-1.214;2023-04-03T00:07:23;5;5;
47982;PMS5003;33751;50.816;-1.214;2023-04-03T00:09:49;4;4;
47982;PMS5003;33751;50.816;-1.214;2023-04-03T00:12:16;4;4;
47982;PMS5003;33751;50.816;-1.214;2023-04-03T00:14:42;6;4;
47982;PMS5003;33751;50.816;-1.214;2023-04-03T00:17:09;3;3;
47982;PMS5003;33751;50.816;-1.214;2023-04-03T00:19:36;5;5;
47982;PMS5003;33751;50.816;-1.214;2023-04-03T00:22:03;4;4;
47982;PMS5003;33751;50.816;-1.214;2023-04-03T00:24:30;5;5;
47982;PMS5003;33751;50.816;-1.214;2023-04-03T00:26:56;2;2;
47982;PMS5003;33751;50.816;-1.214;2023-04-03T00:29:23;5;5;
47982;PMS5003;33751;50.816;-1.214;2023-04-03T00:31:50;3;3;
47982;PMS5003;33751;50.816;-1.214;2023-04-03T00:34:17;4;3;
47982;PMS5003;33751;50.816;-1.214;2023-04-03T00:36:43;5;5;
47982;PMS5003;33751;50.816;-1.214;2023-04-03T00:39:11;4;4;
47982;PMS5003;33751;50.816;-1.214;2023-04-03T00:41:37;6;4;
47982;PMS5003;33751;50.816;-1.214;2023-04-03T00:44:18;4;4;
47982;PMS5003;33751;50.816;-1.214;2023-04-03T00:46:46;5;5;
47982;PMS5003;33751;50.816;-1.214;2023-04-03T00:49:13;5;5;
47982;PMS5003;33751;50.816;-1.214;2023-04-03T00:51:40;3;3;
47982;PMS5003;33751;50.816;-1.214;2023-04-03T00:54:08;3;3;
47982;PMS5003;33751;50.816;-1.214;2023-04-03T00:56:35;3;3;
47982;PMS5003;33751;50.816;-1.214;2023-04-03T00:59:04;3;3;
47982;PMS5003;33751;50.816;-1.214;2023-04-03T01:01:35;4;3;
47982;PMS5003;33751;50.816;-1.214;2023-04-03T01:04:04;5;5;
47982;PMS5003;33751;50.816;-1.214;2023-04-03T01:06:32;3;3;
47982;PMS5003;33751;50.816;-1.214;2023-04-03T01:09:02;6;6;
47982;PMS5003;33751;50.816;-1.214;2023-04-03T01:11:29;2;2;
47982;PMS5003;33751;50.816;-1.214;2023-04-03T01:13:57;3;3;
47982;PMS5003;33751;50.816;-1.214;2023-04-03T01:16:24;3;3;
47982;PMS5003;33751;50.816;-1.214;2023-04-03T01:18:51;4;4;
47982;PMS5003;33751;50.816;-1.214;2023-04-03T01:21:28;3;3;
47982;PMS5003;33751;50.816;-1.214;2023-04-03T01:24:19;9;5;
47982;PMS5003;33751;50.816;-1.214;2023-04-03T01:26:54;3;3;
47982;PMS5003;33751;50.816;-1.214;2023-04-03T01:29:21;4;4;
47982;PMS5003;33751;50.816;-1.214;2023-04-03T01:31:48;3;3;
47982;PMS5003;33751;50.816;-1.214;2023-04-03T01:34:17;4;4;
47982;PMS5003;33751;50.816;-1.214;2023-04-03T01:36:45;2;2;
47982;PMS5003;33751;50.816;-1.214;2023-04-03T01:39:13;3;3;
47982;PMS5003;33751;50.816;-1.214;2023-04-03T01:41:40;7;4;
47982;PMS5003;33751;50.816;-1.214;2023-04-03T01:44:07;3;3;
47982;PMS5003;33751;50.816;-1.214;2023-04-03T01:46:33;3;3;
47982;PMS5003;33751;50.816;-1.214;2023-04-03T01:49:01;3;3;
47982;PMS5003;33751;50.816;-1.214;2023-04-03T01:51:28;4;4;
47982;PMS5003;33751;50.816;-1.214;2023-04-03T01:53:55;2;2;
47982;PMS5003;33751;50.816;-1.214;2023-04-03T01:56:22;3;3;
47982;PMS5003;33751;50.816;-1.214;2023-04-03T01:58:49;2;2;
47982;PMS5003;33751;50.816;-1.214;2023-04-03T02:01:15;2;1;
47982;PMS5003;33751;50.816;-1.214;2023-04-03T02:03:42;2;2;
47982;PMS5003;33751;50.816;-1.214;2023-04-03T02:06:10;4;4;
47982;PMS5003;33751;50.816;-1.214;2023-04-03T02:08:36;2;2;
47982;PMS5003;33751;50.816;-1.214;2023-04-03T02:11:04;2;2;
47982;PMS5003;33751;50.816;-1.214;2023-04-03T02:13:30;2;2;
47982;PMS5003;33751;50.816;-1.214;2023-04-03T02:15:57;2;2;
47982;PMS5003;33751;50.816;-1.214;2023-04-03T02:18:24;3;2;
47982;PMS5003;33751;50.816;-1.214;2023-04-03T02:20:51;2;2;
47982;PMS5003;33751;50.816;-1.214;2023-04-03T02:23:18;6;6;
47982;PMS5003;33751;50.816;-1.214;2023-04-03T02:25:45;1;1;
47982;PMS5003;33751;50.816;-1.214;2023-04-03T02:28:11;3;3;
47982;PMS5003;33751;50.816;-1.214;2023-04-03T02:30:38;3;3;
47982;PMS5003;33751;50.816;-1.214;2023-04-03T02:33:04;3;3;
47982;PMS5003;33751;50.816;-1.214;2023-04-03T02:35:31;4;2;
47982;PMS5003;33751;50.816;-1.214;2023-04-03T02:37:58;2;2;
47982;PMS5003;33751;50.816;-1.214;2023-04-03T02:40:25;1;1;
47982;PMS5003;33751;50.816;-1.214;2023-04-03T02:42:52;2;2;
47982;PMS5003;33751;50.816;-1.214;2023-04-03T02:45:20;2;1;
47982;PMS5003;33751;50.816;-1.214;2023-04-03T02:47:46;2;2;
47982;PMS5003;33751;50.816;-1.214;2023-04-03T02:50:13;2;2;
47982;PMS5003;33751;50.816;-1.214;2023-04-03T02:52:40;1;1;
47982;PMS5003;33751;50.816;-1.214;2023-04-03T02:55:07;2;2;
47982;PMS5003;33751;50.816;-1.214;2023-04-03T02:57:35;3;3;
47982;PMS5003;33751;50.816;-1.214;2023-04-03T03:00:01;3;3;
47982;PMS5003;33751;50.816;-1.214;2023-04-03T03:02:28;5;3;
47982;PMS5003;33751;50.816;-1.214;2023-04-03T03:04:55;2;2;
47982;PMS5003;33751;50.816;-1.214;2023-04-03T03:07:21;2;2;
47982;PMS5003;33751;50.816;-1.214;2023-04-03T03:09:48;2;2;
47982;PMS5003;33751;50.816;-1.214;2023-04-03T03:12:14;2;2;
47982;PMS5003;33751;50.816;-1.214;2023-04-03T03:14:41;3;1;
47982;PMS5003;33751;50.816;-1.214;2023-04-03T03:17:08;3;3;
47982;PMS5003;33751;50.816;-1.214;2023-04-03T03:19:35;2;2;
47982;PMS5003;33751;50.816;-1.214;2023-04-03T03:22:01;1;1;
47982;PMS5003;33751;50.816;-1.214;2023-04-03T03:24:28;1;1;
47982;PMS5003;33751;50.816;-1.214;2023-04-03T03:26:55;4;2;
47982;PMS5003;33751;50.816;-1.214;2023-04-03T03:29:21;4;2;
47982;PMS5003;33751;50.816;-1.214;2023-04-03T03:31:48;2;2;
47982;PMS5003;33751;50.816;-1.214;2023-04-03T03:34:15;2;2;
47982;PMS5003;33751;50.816;-1.214;2023-04-03T03:36:42;2;2;
47982;PMS5003;33751;50.816;-1.214;2023-04-03T03:39:09;1;1;
47982;PMS5003;33751;50.816;-1.214;2023-04-03T03:41:36;3;3;
47982;PMS5003;33751;50.816;-1.214;2023-04-03T03:44:03;2;2;
47982;PMS5003;33751;50.816;-1.214;2023-04-03T03:46:30;5;3;
47982;PMS5003;33751;50.816;-1.214;2023-04-03T03:48:56;2;2;
47982;PMS5003;33751;50.816;-1.214;2023-04-03T03:51:24;2;2;
47982;PMS5003;33751;50.816;-1.214;2023-04-03T03:53:50;1;1;
47982;PMS5003;33751;50.816;-1.214;2023-04-03T03:56:18;2;2;
47982;PMS5003;33751;50.816;-1.214;2023-04-03T03:58:45;1;1;
47982;PMS5003;33751;50.816;-1.214;2023-04-03T04:01:12;2;2;
47982;PMS5003;33751;50.816;-1.214;2023-04-03T04:03:40;2;2;
47982;PMS5003;33751;50.816;-1.214;2023-04-03T04:06:06;2;2;
47982;PMS5003;33751;50.816;-1.214;2023-04-03T04:08:33;2;2;
47982;PMS5003;33751;50.816;-1.214;2023-04-03T04:10:59;2;2;
47982;PMS5003;33751;50.816;-1.214;2023-04-03T04:13:25;2;2;
47982;PMS5003;33751;50.816;-1.214;2023-04-03T04:15:52;4;2;
47982;PMS5003;33751;50.816;-1.214;2023-04-03T04:18:19;3;2;
47982;PMS5003;33751;50.816;-1.214;2023-04-03T04:20:45;3;2;
47982;PMS5003;33751;50.816;-1.214;2023-04-03T04:23:11;2;2;
47982;PMS5003;33751;50.816;-1.214;2023-04-03T04:25:39;2;2;
47982;PMS5003;33751;50.816;-1.214;2023-04-03T04:28:05;3;2;
47982;PMS5003;33751;50.816;-1.214;2023-04-03T04:30:33;1;1;
47982;PMS5003;33751;50.816;-1.214;2023-04-03T04:32:59;2;2;
47982;PMS5003;33751;50.816;-1.214;2023-04-03T04:35:27;2;2;
47982;PMS5003;33751;50.816;-1.214;2023-04-03T04:37:53;2;2;
47982;PMS5003;33751;50.816;-1.214;2023-04-03T04:40:20;1;0;
47982;PMS5003;33751;50.816;-1.214;2023-04-03T04:42:48;2;2;
47982;PMS5003;33751;50.816;-1.214;2023-04-03T04:45:15;2;2;
47982;PMS5003;33751;50.816;-1.214;2023-04-03T04:47:42;1;1;
47982;PMS5003;33751;50.816;-1.214;2023-04-03T04:50:09;2;2;
47982;PMS5003;33751;50.816;-1.214;2023-04-03T04:52:37;3;3;
47982;PMS5003;33751;50.816;-1.214;2023-04-03T04:55:04;2;1;
47982;PMS5003;33751;50.816;-1.214;2023-04-03T04:57:32;3;2;
47982;PMS5003;33751;50.816;-1.214;2023-04-03T04:59:59;3;2;
47982;PMS5003;33751;50.816;-1.214;2023-04-03T05:02:26;1;1;
47982;PMS5003;33751;50.816;-1.214;2023-04-03T05:04:53;2;2;
47982;PMS5003;33751;50.816;-1.214;2023-04-03T05:07:20;3;3;
47982;PMS5003;33751;50.816;-1.214;2023-04-03T05:09:46;0;0;
47982;PMS5003;33751;50.816;-1.214;2023-04-03T05:12:14;1;1;
47982;PMS5003;33751;50.816;-1.214;2023-04-03T05:14:41;2;2;
47982;PMS5003;33751;50.816;-1.214;2023-04-03T05:17:08;1;1;
47982;PMS5003;33751;50.816;-1.214;2023-04-03T05:19:35;2;2;
47982;PMS5003;33751;50.816;-1.214;2023-04-03T05:22:01;2;2;
47982;PMS5003;33751;50.816;-1.214;2023-04-03T05:24:29;5;2;
47982;PMS5003;33751;50.816;-1.214;2023-04-03T05:26:56;3;3;
47982;PMS5003;33751;50.816;-1.214;2023-04-03T05:29:23;1;1;
47982;PMS5003;33751;50.816;-1.214;2023-04-03T05:31:49;1;1;
47982;PMS5003;33751;50.816;-1.214;2023-04-03T05:34:17;2;2;
47982;PMS5003;33751;50.816;-1.214;2023-04-03T05:36:44;1;1;
47982;PMS5003;33751;50.816;-1.214;2023-04-03T05:39:11;2;2;
47982;PMS5003;33751;50.816;-1.214;2023-04-03T05:41:37;1;1;
47982;PMS5003;33751;50.816;-1.214;2023-04-03T05:44:04;1;1;
47982;PMS5003;33751;50.816;-1.214;2023-04-03T05:46:31;1;1;
47982;PMS5003;33751;50.816;-1.214;2023-04-03T05:48:58;2;2;
47982;PMS5003;33751;50.816;-1.214;2023-04-03T05:51:25;0;0;
47982;PMS5003;33751;50.816;-1.214;2023-04-03T05:53:59;1;1;
47982;PMS5003;33751;50.816;-1.214;2023-04-03T05:56:31;1;1;
47982;PMS5003;33751;50.816;-1.214;2023-04-03T05:58:58;1;0;
47982;PMS5003;33751;50.816;-1.214;2023-04-03T06:01:24;2;1;
47982;PMS5003;33751;50.816;-1.214;2023-04-03T06:03:50;1;1;
47982;PMS5003;33751;50.816;-1.214;2023-04-03T06:06:17;1;1;
47982;PMS5003;33751;50.816;-1.214;2023-04-03T06:08:43;1;1;
47982;PMS5003;33751;50.816;-1.214;2023-04-03T06:11:10;1;1;
47982;PMS5003;33751;50.816;-1.214;2023-04-03T06:13:36;1;1;
47982;PMS5003;33751;50.816;-1.214;2023-04-03T06:16:03;1;1;
47982;PMS5003;33751;50.816;-1.214;2023-04-03T06:18:30;2;2;
47982;PMS5003;33751;50.816;-1.214;2023-04-03T06:20:57;1;1;
47982;PMS5003;33751;50.816;-1.214;2023-04-03T06:23:24;4;2;
47982;PMS5003;33751;50.816;-1.214;2023-04-03T06:25:52;1;1;
47982;PMS5003;33751;50.816;-1.214;2023-04-03T06:28:19;1;1;
47982;PMS5003;33751;50.816;-1.214;2023-04-03T06:30:45;3;3;
47982;PMS5003;33751;50.816;-1.214;2023-04-03T06:33:12;1;1;
47982;PMS5003;33751;50.816;-1.214;2023-04-03T06:35:38;1;1;
47982;PMS5003;33751;50.816;-1.214;2023-04-03T06:38:05;5;1;
47982;PMS5003;33751;50.816;-1.214;2023-04-03T06:40:32;2;2;
47982;PMS5003;33751;50.816;-1.214;2023-04-03T06:42:59;2;2;
47982;PMS5003;33751;50.816;-1.214;2023-04-03T06:45:26;0;0;
47982;PMS5003;33751;50.816;-1.214;2023-04-03T06:47:53;0;0;
47982;PMS5003;33751;50.816;-1.214;2023-04-03T06:50:20;1;1;
47982;PMS5003;33751;50.816;-1.214;2023-04-03T06:52:47;2;2;
47982;PMS5003;33751;50.816;-1.214;2023-04-03T06:55:13;2;2;
47982;PMS5003;33751;50.816;-1.214;2023-04-03T06:57:40;1;1;
47982;PMS5003;33751;50.816;-1.214;2023-04-03T07:00:07;2;1;
47982;PMS5003;33751;50.816;-1.214;2023-04-03T07:02:35;1;1;
47982;PMS5003;33751;50.816;-1.214;2023-04-03T07:05:02;1;1;
47982;PMS5003;33751;50.816;-1.214;2023-04-03T07:07:29;2;1;
47982;PMS5003;33751;50.816;-1.214;2023-04-03T07:09:56;1;1;
47982;PMS5003;33751;50.816;-1.214;2023-04-03T07:12:24;2;1;
47982;PMS5003;33751;50.816;-1.214;2023-04-03T07:14:51;1;1;
47982;PMS5003;33751;50.816;-1.214;2023-04-03T07:17:17;0;0;
47982;PMS5003;33751;50.816;-1.214;2023-04-03T07:19:45;0;0;
47982;PMS5003;33751;50.816;-1.214;2023-04-03T07:22:12;1;1;
47982;PMS5003;33751;50.816;-1.214;2023-04-03T07:24:38;1;1;
47982;PMS5003;33751;50.816;-1.214;2023-04-03T07:27:05;1;1;
47982;PMS5003;33751;50.816;-1.214;2023-04-03T07:29:33;0;0;
47982;PMS5003;33751;50.816;-1.214;2023-04-03T07:32:01;2;1;
47982;PMS5003;33751;50.816;-1.214;2023-04-03T07:34:28;2;2;
47982;PMS5003;33751;50.816;-1.214;2023-04-03T07:36:55;1;1;
47982;PMS5003;33751;50.816;-1.214;2023-04-03T07:39:22;2;2;
47982;PMS5003;33751;50.816;-1.214;2023-04-03T07:41:48;1;1;
47982;PMS5003;33751;50.816;-1.214;2023-04-03T07:44:15;2;2;
47982;PMS5003;33751;50.816;-1.214;2023-04-03T07:46:41;1;1;
47982;PMS5003;33751;50.816;-1.214;2023-04-03T07:49:08;0;0;
47982;PMS5003;33751;50.816;-1.214;2023-04-03T07:51:34;1;1;
47982;PMS5003;33751;50.816;-1.214;2023-04-03T07:54:03;1;1;
47982;PMS5003;33751;50.816;-1.214;2023-04-03T07:56:30;2;2;
47982;PMS5003;33751;50.816;-1.214;2023-04-03T07:58:56;2;2;
47982;PMS5003;33751;50.816;-1.214;2023-04-03T08:01:23;1;1;
47982;PMS5003;33751;50.816;-1.214;2023-04-03T08:03:49;2;2;
47982;PMS5003;33751;50.816;-1.214;2023-04-03T08:06:16;1;1;
47982;PMS5003;33751;50.816;-1.214;2023-04-03T08:08:43;1;1;
47982;PMS5003;33751;50.816;-1.214;2023-04-03T08:11:11;2;2;
47982;PMS5003;33751;50.816;-1.214;2023-04-03T08:13:38;1;1;
47982;PMS5003;33751;50.816;-1.214;2023-04-03T08:16:07;2;2;
47982;PMS5003;33751;50.816;-1.214;2023-04-03T08:18:36;3;3;
47982;PMS5003;33751;50.816;-1.214;2023-04-03T08:21:05;4;4;
47982;PMS5003;33751;50.816;-1.214;2023-04-03T08:23:33;3;3;
47982;PMS5003;33751;50.816;-1.214;2023-04-03T08:26:04;2;2;
47982;PMS5003;33751;50.816;-1.214;2023-04-03T08:28:33;3;2;
47982;PMS5003;33751;50.816;-1.214;2023-04-03T08:31:02;1;1;
47982;PMS5003;33751;50.816;-1.214;2023-04-03T08:33:30;3;3;
47982;PMS5003;33751;50.816;-1.214;2023-04-03T08:35:57;2;2;
47982;PMS5003;33751;50.816;-1.214;2023-04-03T08:38:24;1;1;
47982;PMS5003;33751;50.816;-1.214;2023-04-03T08:40:59;4;2;
47982;PMS5003;33751;50.816;-1.214;2023-04-03T08:43:30;2;2;
47982;PMS5003;33751;50.816;-1.214;2023-04-03T08:46:05;2;2;
47982;PMS5003;33751;50.816;-1.214;2023-04-03T08:48:39;2;2;
47982;PMS5003;33751;50.816;-1.214;2023-04-03T08:51:10;4;4;
47982;PMS5003;33751;50.816;-1.214;2023-04-03T08:53:42;3;2;
47982;PMS5003;33751;50.816;-1.214;2023-04-03T08:56:12;1;1;
47982;PMS5003;33751;50.816;-1.214;2023-04-03T08:58:46;2;2;
47982;PMS5003;33751;50.816;-1.214;2023-04-03T09:01:17;2;2;
47982;PMS5003;33751;50.816;-1.214;2023-04-03T09:03:46;3;3;
47982;PMS5003;33751;50.816;-1.214;2023-04-03T09:06:15;2;2;
47982;PMS5003;33751;50.816;-1.214;2023-04-03T09:08:46;4;4;
47982;PMS5003;33751;50.816;-1.214;2023-04-03T09:11:20;5;3;
47982;PMS5003;33751;50.816;-1.214;2023-04-03T09:13:52;7;5;
47982;PMS5003;33751;50.816;-1.214;2023-04-03T09:16:27;4;4;
47982;PMS5003;33751;50.816;-1.214;2023-04-03T09:19:07;9;9;
47982;PMS5003;33751;50.816;-1.214;2023-04-03T09:21:42;10;10;
47982;PMS5003;33751;50.816;-1.214;2023-04-03T09:24:10;11;11;
47982;PMS5003;33751;50.816;-1.214;2023-04-03T09:26:43;9;9;
47982;PMS5003;33751;50.816;-1.214;2023-04-03T09:29:16;11;11;
47982;PMS5003;33751;50.816;-1.214;2023-04-03T09:31:44;11;8;
47982;PMS5003;33751;50.816;-1.214;2023-04-03T09:34:15;7;7;
47982;PMS5003;33751;50.816;-1.214;2023-04-03T09:36:49;6;6;
47982;PMS5003;33751;50.816;-1.214;2023-04-03T09:39:18;7;6;
47982;PMS5003;33751;50.816;-1.214;2023-04-03T09:42:02;7;5;
47982;PMS5003;33751;50.816;-1.214;2023-04-03T09:44:32;5;5;
47982;PMS5003;33751;50.816;-1.214;2023-04-03T09:47:16;5;5;
47982;PMS5003;33751;50.816;-1.214;2023-04-03T09:49:45;5;5;
47982;PMS5003;33751;50.816;-1.214;2023-04-03T09:52:18;6;6;
47982;PMS5003;33751;50.816;-1.214;2023-04-03T09:54:46;9;8;
47982;PMS5003;33751;50.816;-1.214;2023-04-03T09:57:13;11;6;
47982;PMS5003;33751;50.816;-1.214;2023-04-03T09:59:43;11;9;
47982;PMS5003;33751;50.816;-1.214;2023-04-03T10:02:21;12;9;
47982;PMS5003;33751;50.816;-1.214;2023-04-03T10:04:56;8;8;
47982;PMS5003;33751;50.816;-1.214;2023-04-03T10:07:27;7;7;
47982;PMS5003;33751;50.816;-1.214;2023-04-03T10:09:57;9;9;
47982;PMS5003;33751;50.816;-1.214;2023-04-03T10:12:26;8;7;
47982;PMS5003;33751;50.816;-1.214;2023-04-03T10:14:54;9;8;
47982;PMS5003;33751;50.816;-1.214;2023-04-03T10:17:24;8;8;
47982;PMS5003;33751;50.816;-1.214;2023-04-03T10:20:03;7;6;
47982;PMS5003;33751;50.816;-1.214;2023-04-03T10:22:37;6;6;
47982;PMS5003;33751;50.816;-1.214;2023-04-03T10:25:11;5;5;
47982;PMS5003;33751;50.816;-1.214;2023-04-03T10:27:46;8;7;
47982;PMS5003;33751;50.816;-1.214;2023-04-03T10:30:22;7;7;
47982;PMS5003;33751;50.816;-1.214;2023-04-03T10:32:59;4;4;
47982;PMS5003;33751;50.816;-1.214;2023-04-03T10:35:42;10;5;
47982;PMS5003;33751;50.816;-1.214;2023-04-03T10:38:18;7;6;
47982;PMS5003;33751;50.816;-1.214;2023-04-03T10:40:52;6;6;
47982;PMS5003;33751;50.816;-1.214;2023-04-03T10:43:25;7;7;
47982;PMS5003;33751;50.816;-1.214;2023-04-03T10:46:00;7;7;
47982;PMS5003;33751;50.816;-1.214;2023-04-03T10:48:34;6;6;
47982;PMS5003;33751;50.816;-1.214;2023-04-03T10:51:14;5;5;
47982;PMS5003;33751;50.816;-1.214;2023-04-03T10:53:51;5;5;
47982;PMS5003;33751;50.816;-1.214;2023-04-03T10:56:24;6;5;
47982;PMS5003;33751;50.816;-1.214;2023-04-03T10:58:59;8;7;
47982;PMS5003;33751;50.816;-1.214;2023-04-03T11:01:35;7;5;
47982;PMS5003;33751;50.816;-1.214;2023-04-03T11:04:04;5;5;
47982;PMS5003;33751;50.816;-1.214;2023-04-03T11:06:33;4;4;
47982;PMS5003;33751;50.816;-1.214;2023-04-03T11:09:09;4;4;
47982;PMS5003;33751;50.816;-1.214;2023-04-03T11:11:44;4;4;
47982;PMS5003;33751;50.816;-1.214;2023-04-03T11:14:13;5;5;
47982;PMS5003;33751;50.816;-1.214;2023-04-03T11:16:48;4;4;
47982;PMS5003;33751;50.816;-1.214;2023-04-03T11:19:27;3;3;
47982;PMS5003;33751;50.816;-1.214;2023-04-03T11:22:01;4;4;
47982;PMS5003;33751;50.816;-1.214;2023-04-03T11:24:36;5;5;
47982;PMS5003;33751;50.816;-1.214;2023-04-03T11:27:08;6;5;
47982;PMS5003;33751;50.816;-1.214;2023-04-03T11:29:41;4;4;
47982;PMS5003;33751;50.816;-1.214;2023-04-03T11:32:17;4;3;
47982;PMS5003;33751;50.816;-1.214;2023-04-03T11:34:57;5;5;
47982;PMS5003;33751;50.816;-1.214;2023-04-03T11:37:28;4;4;
47982;PMS5003;33751;50.816;-1.214;2023-04-03T11:40:02;2;2;
47982;PMS5003;33751;50.816;-1.214;2023-04-03T11:42:34;6;5;
47982;PMS5003;33751;50.816;-1.214;2023-04-03T11:45:15;4;4;
47982;PMS5003;33751;50.816;-1.214;2023-04-03T11:47:50;5;3;
47982;PMS5003;33751;50.816;-1.214;2023-04-03T11:50:43;4;4;
47982;PMS5003;33751;50.816;-1.214;2023-04-03T11:53:46;5;5;
47982;PMS5003;33751;50.816;-1.214;2023-04-03T11:56:33;5;5;
47982;PMS5003;33751;50.816;-1.214;2023-04-03T11:59:36;4;3;
47982;PMS5003;33751;50.816;-1.214;2023-04-03T12:02:13;4;4;
47982;PMS5003;33751;50.816;-1.214;2023-04-03T12:05:36;3;3;
47982;PMS5003;33751;50.816;-1.214;2023-04-03T12:08:43;4;3;
47982;PMS5003;33751;50.816;-1.214;2023-04-03T12:11:15;3;3;
47982;PMS5003;33751;50.816;-1.214;2023-04-03T12:14:04;3;3;
47982;PMS5003;33751;50.816;-1.214;2023-04-03T12:16:42;3;3;
47982;PMS5003;33751;50.816;-1.214;2023-04-03T12:19:28;4;4;
47982;PMS5003;33751;50.816;-1.214;2023-04-03T12:22:08;3;3;
47982;PMS5003;33751;50.816;-1.214;2023-04-03T12:24:37;4;4;
47982;PMS5003;33751;50.816;-1.214;2023-04-03T12:27:13;2;2;
47982;PMS5003;33751;50.816;-1.214;2023-04-03T12:29:51;4;4;
47982;PMS5003;33751;50.816;-1.214;2023-04-03T12:32:26;2;2;
47982;PMS5003;33751;50.816;-1.214;2023-04-03T12:35:14;5;5;
47982;PMS5003;33751;50.816;-1.214;2023-04-03T12:37:51;3;3;
47982;PMS5003;33751;50.816;-1.214;2023-04-03T12:41:10;2;2;
47982;PMS5003;33751;50.816;-1.214;2023-04-03T12:43:52;4;4;
47982;PMS5003;33751;50.816;-1.214;2023-04-03T12:46:28;4;4;
47982;PMS5003;33751;50.816;-1.214;2023-04-03T12:49:05;6;4;
47982;PMS5003;33751;50.816;-1.214;2023-04-03T12:51:49;3;3;
47982;PMS5003;33751;50.816;-1.214;2023-04-03T12:54:17;4;3;
47982;PMS5003;33751;50.816;-1.214;2023-04-03T12:56:49;3;3;
47982;PMS5003;33751;50.816;-1.214;2023-04-03T12:59:18;5;4;
47982;PMS5003;33751;50.816;-1.214;2023-04-03T13:01:55;4;4;
47982;PMS5003;33751;50.816;-1.214;2023-04-03T13:04:24;4;4;
47982;PMS5003;33751;50.816;-1.214;2023-04-03T13:06:51;3;3;
47982;PMS5003;33751;50.816;-1.214;2023-04-03T13:09:19;4;3;
47982;PMS5003;33751;50.816;-1.214;2023-04-03T13:11:48;4;4;
47982;PMS5003;33751;50.816;-1.214;2023-04-03T13:14:17;3;3;
47982;PMS5003;33751;50.816;-1.214;2023-04-03T13:16:54;2;2;
47982;PMS5003;33751;50.816;-1.214;2023-04-03T13:19:22;6;3;
47982;PMS5003;33751;50.816;-1.214;2023-04-03T13:21:52;3;3;
47982;PMS5003;33751;50.816;-1.214;2023-04-03T13:24:25;3;3;
47982;PMS5003;33751;50.816;-1.214;2023-04-03T13:26:52;4;3;
47982;PMS5003;33751;50.816;-1.214;2023-04-03T13:29:22;4;3;
47982;PMS5003;33751;50.816;-1.214;2023-04-03T13:31:52;2;2;
47982;PMS5003;33751;50.816;-1.214;2023-04-03T13:34:21;5;4;
47982;PMS5003;33751;50.816;-1.214;2023-04-03T13:36:55;3;3;
47982;PMS5003;33751;50.816;-1.214;2023-04-03T13:39:25;2;2;
47982;PMS5003;33751;50.816;-1.214;2023-04-03T13:41:54;2;2;
47982;PMS5003;33751;50.816;-1.214;2023-04-03T13:44:27;4;4;
47982;PMS5003;33751;50.816;-1.214;2023-04-03T13:46:57;3;3;
47982;PMS5003;33751;50.816;-1.214;2023-04-03T13:49:29;3;3;
47982;PMS5003;33751;50.816;-1.214;2023-04-03T13:51:59;5;3;
47982;PMS5003;33751;50.816;-1.214;2023-04-03T13:54:29;4;4;
47982;PMS5003;33751;50.816;-1.214;2023-04-03T13:56:59;3;3;
47982;PMS5003;33751;50.816;-1.214;2023-04-03T13:59:28;1;1;
47982;PMS5003;33751;50.816;-1.214;2023-04-03T14:02:09;2;2;
47982;PMS5003;33751;50.816;-1.214;2023-04-03T14:04:45;2;2;
47982;PMS5003;33751;50.816;-1.214;2023-04-03T14:07:15;2;2;
47982;PMS5003;33751;50.816;-1.214;2023-04-03T14:09:43;2;2;
47982;PMS5003;33751;50.816;-1.214;2023-04-03T14:12:12;3;3;
47982;PMS5003;33751;50.816;-1.214;2023-04-03T14:14:42;2;2;
47982;PMS5003;33751;50.816;-1.214;2023-04-03T14:17:13;2;2;
47982;PMS5003;33751;50.816;-1.214;2023-04-03T14:19:41;5;3;
47982;PMS5003;33751;50.816;-1.214;2023-04-03T14:22:13;9;2;
47982;PMS5003;33751;50.816;-1.214;2023-04-03T14:24:43;2;2;
47982;PMS5003;33751;50.816;-1.214;2023-04-03T14:27:15;1;1;
47982;PMS5003;33751;50.816;-1.214;2023-04-03T14:29:44;2;2;
47982;PMS5003;33751;50.816;-1.214;2023-04-03T14:32:11;2;2;
47982;PMS5003;33751;50.816;-1.214;2023-04-03T14:34:39;2;2;
47982;PMS5003;33751;50.816;-1.214;2023-04-03T14:37:09;2;2;
47982;PMS5003;33751;50.816;-1.214;2023-04-03T14:39:38;2;2;
47982;PMS5003;33751;50.816;-1.214;2023-04-03T14:42:10;2;2;
47982;PMS5003;33751;50.816;-1.214;2023-04-03T14:44:39;4;2;
47982;PMS5003;33751;50.816;-1.214;2023-04-03T14:47:08;3;3;
47982;PMS5003;33751;50.816;-1.214;2023-04-03T14:49:36;4;3;
47982;PMS5003;33751;50.816;-1.214;2023-04-03T14:52:03;2;2;
47982;PMS5003;33751;50.816;-1.214;2023-04-03T14:54:29;2;2;
47982;PMS5003;33751;50.816;-1.214;2023-04-03T14:56:57;1;1;
47982;PMS5003;33751;50.816;-1.214;2023-04-03T14:59:26;3;1;
47982;PMS5003;33751;50.816;-1.214;2023-04-03T15:01:55;0;0;
47982;PMS5003;33751;50.816;-1.214;2023-04-03T15:04:22;1;1;
47982;PMS5003;33751;50.816;-1.214;2023-04-03T15:06:48;3;2;
47982;PMS5003;33751;50.816;-1.214;2023-04-03T15:09:19;2;2;
47982;PMS5003;33751;50.816;-1.214;2023-04-03T15:11:48;3;3;
47982;PMS5003;33751;50.816;-1.214;2023-04-03T15:14:15;1;1;
47982;PMS5003;33751;50.816;-1.214;2023-04-03T15:16:42;1;1;
47982;PMS5003;33751;50.816;-1.214;2023-04-03T15:19:10;1;1;
47982;PMS5003;33751;50.816;-1.214;2023-04-03T15:21:38;2;2;
47982;PMS5003;33751;50.816;-1.214;2023-04-03T15:24:06;1;1;
47982;PMS5003;33751;50.816;-1.214;2023-04-03T15:26:32;3;3;
47982;PMS5003;33751;50.816;-1.214;2023-04-03T15:28:59;1;1;
47982;PMS5003;33751;50.816;-1.214;2023-04-03T15:31:27;3;3;
47982;PMS5003;33751;50.816;-1.214;2023-04-03T15:33:54;2;2;
47982;PMS5003;33751;50.816;-1.214;2023-04-03T15:36:22;1;1;
47982;PMS5003;33751;50.816;-1.214;2023-04-03T15:38:49;3;3;
47982;PMS5003;33751;50.816;-1.214;2023-04-03T15:41:16;5;3;
47982;PMS5003;33751;50.816;-1.214;2023-04-03T15:43:44;2;2;
47982;PMS5003;33751;50.816;-1.214;2023-04-03T15:46:11;2;2;
47982;PMS5003;33751;50.816;-1.214;2023-04-03T15:48:39;3;3;
47982;PMS5003;33751;50.816;-1.214;2023-04-03T15:51:05;3;3;
47982;PMS5003;33751;50.816;-1.214;2023-04-03T15:53:32;2;2;
47982;PMS5003;33751;50.816;-1.214;2023-04-03T15:55:59;2;2;
47982;PMS5003;33751;50.816;-1.214;2023-04-03T15:58:26;3;2;
47982;PMS5003;33751;50.816;-1.214;2023-04-03T16:00:52;2;2;
47982;PMS5003;33751;50.816;-1.214;2023-04-03T16:03:20;2;2;
47982;PMS5003;33751;50.816;-1.214;2023-04-03T16:05:48;1;1;
47982;PMS5003;33751;50.816;-1.214;2023-04-03T16:08:15;1;1;
47982;PMS5003;33751;50.816;-1.214;2023-04-03T16:10:43;4;3;
47982;PMS5003;33751;50.816;-1.214;2023-04-03T16:13:10;2;2;
47982;PMS5003;33751;50.816;-1.214;2023-04-03T16:15:37;4;3;
47982;PMS5003;33751;50.816;-1.214;2023-04-03T16:18:04;1;1;
47982;PMS5003;33751;50.816;-1.214;2023-04-03T16:20:32;1;1;
47982;PMS5003;33751;50.816;-1.214;2023-04-03T16:23:01;3;2;
47982;PMS5003;33751;50.816;-1.214;2023-04-03T16:25:28;2;1;
47982;PMS5003;33751;50.816;-1.214;2023-04-03T16:27:56;1;1;
47982;PMS5003;33751;50.816;-1.214;2023-04-03T16:30:23;2;2;
47982;PMS5003;33751;50.816;-1.214;2023-04-03T16:32:49;4;2;
47982;PMS5003;33751;50.816;-1.214;2023-04-03T16:35:17;2;2;
47982;PMS5003;33751;50.816;-1.214;2023-04-03T16:37:44;3;3;
47982;PMS5003;33751;50.816;-1.214;2023-04-03T16:40:11;1;1;
47982;PMS5003;33751;50.816;-1.214;2023-04-03T16:42:38;2;2;
47982;PMS5003;33751;50.816;-1.214;2023-04-03T16:45:04;3;3;
47982;PMS5003;33751;50.816;-1.214;2023-04-03T16:47:32;4;4;
47982;PMS5003;33751;50.816;-1.214;2023-04-03T16:50:00;2;2;